createdAt,value
2019-05-13T00:01:59.072Z,1.77
2019-05-13T00:04:29.430Z,1.30
2019-05-13T00:06:59.773Z,1.67
2019-05-13T00:09:30.563Z,1.30
2019-05-13T00:12:00.917Z,1.50
2019-05-13T00:14:31.571Z,1.37
2019-05-13T00:17:04.318Z,1.90
2019-05-13T00:19:34.838Z,1.10
2019-05-13T00:22:05.138Z,1.60
2019-05-13T00:24:35.334Z,1.43
2019-05-13T00:27:05.638Z,1.40
2019-05-13T00:29:35.938Z,1.60
2019-05-13T00:32:06.298Z,1.43
2019-05-13T00:34:36.567Z,1.60
2019-05-13T00:37:11.198Z,1.30
2019-05-13T00:39:38.921Z,1.20
2019-05-13T00:42:09.624Z,1.17
2019-05-13T00:44:39.904Z,1.40
2019-05-13T00:47:10.139Z,1.47
2019-05-13T00:49:40.446Z,2.00
2019-05-13T00:52:11.152Z,1.30
2019-05-13T00:54:41.379Z,1.30
2019-05-13T00:57:13.366Z,1.67
2019-05-13T00:59:44.442Z,1.57
2019-05-13T01:02:14.691Z,1.30
2019-05-13T01:04:44.915Z,1.40
2019-05-13T01:07:25.266Z,1.33
2019-05-13T01:09:47.110Z,1.57
2019-05-13T01:12:17.524Z,1.20
2019-05-13T01:14:48.145Z,1.23
2019-05-13T01:17:18.362Z,1.30
2019-05-13T01:19:48.590Z,1.17
2019-05-13T01:22:18.847Z,1.53
2019-05-13T01:24:50.058Z,1.70
2019-05-13T01:27:20.387Z,1.50
2019-05-13T01:29:50.689Z,1.30
2019-05-13T01:32:20.964Z,1.47
2019-05-13T01:34:53.840Z,1.70
2019-05-13T01:37:38.006Z,1.30
2019-05-13T01:39:56.931Z,1.60
2019-05-13T01:42:27.212Z,1.40
2019-05-13T01:44:58.682Z,1.50
2019-05-13T01:47:28.998Z,1.47
2019-05-13T01:49:59.246Z,1.60
2019-05-13T01:52:29.644Z,1.60
2019-05-13T01:54:59.898Z,1.67
2019-05-13T01:57:30.167Z,1.50
2019-05-13T02:00:00.435Z,1.67
2019-05-13T02:02:33.671Z,1.57
2019-05-13T02:05:04.072Z,1.50
2019-05-13T02:07:34.531Z,1.63
2019-05-13T02:10:05.665Z,1.50
2019-05-13T02:12:35.922Z,1.53
2019-05-13T02:15:07.012Z,1.43
2019-05-13T02:19:35.914Z,1.70
2019-05-13T02:22:06.145Z,1.70
2019-05-13T02:24:36.457Z,1.67
2019-05-13T02:27:06.806Z,1.40
2019-05-13T02:29:37.075Z,1.33
2019-05-13T02:32:07.356Z,1.70
2019-05-13T02:34:37.645Z,1.60
2019-05-13T02:37:07.842Z,1.60
2019-05-13T02:39:38.124Z,1.80
2019-05-13T02:42:08.412Z,1.67
2019-05-13T02:44:38.663Z,1.70
2019-05-13T02:47:12.114Z,1.57
2019-05-13T02:49:43.048Z,1.12
2019-05-13T02:52:13.501Z,1.23
2019-05-13T02:54:43.949Z,1.73
2019-05-13T02:57:14.239Z,1.13
2019-05-13T02:59:44.512Z,1.50
2019-05-13T03:02:14.878Z,1.30
2019-05-13T03:04:45.130Z,1.57
2019-05-13T03:07:15.416Z,1.53
2019-05-13T03:09:45.657Z,1.33
2019-05-13T03:12:16.201Z,1.60
2019-05-13T03:14:48.448Z,1.27
2019-05-13T03:17:26.735Z,1.53
2019-05-13T03:19:56.963Z,1.60
2019-05-13T03:22:27.393Z,1.60
2019-05-13T03:24:57.677Z,1.47
2019-05-13T03:27:27.994Z,1.80
2019-05-13T03:29:58.248Z,1.63
2019-05-13T03:32:35.662Z,1.80
2019-05-13T03:35:06.319Z,1.50
2019-05-13T03:37:34.895Z,1.87
2019-05-13T03:40:05.298Z,1.93
2019-05-13T03:42:37.277Z,1.70
2019-05-13T03:45:07.941Z,1.60
2019-05-13T03:47:41.990Z,1.90
2019-05-13T03:50:12.980Z,1.53
2019-05-13T03:52:43.721Z,1.80
2019-05-13T03:55:14.692Z,1.60
2019-05-13T03:57:45.927Z,1.75
2019-05-13T04:00:16.557Z,1.80
2019-05-13T04:02:47.465Z,1.60
2019-05-13T04:05:17.741Z,1.67
2019-05-13T04:07:48.026Z,1.85
2019-05-13T04:10:18.763Z,1.63
2019-05-13T04:12:52.388Z,1.90
2019-05-13T04:15:23.409Z,1.70
2019-05-13T04:17:54.802Z,1.70
2019-05-13T04:20:24.993Z,1.80
2019-05-13T04:22:55.612Z,2.40
2019-05-13T04:25:25.870Z,1.97
2019-05-13T04:27:56.169Z,2.00
2019-05-13T04:30:26.427Z,2.00
2019-05-13T04:32:57.434Z,2.40
2019-05-13T04:35:27.631Z,1.93
2019-05-13T04:37:58.546Z,2.05
2019-05-13T04:40:28.840Z,1.90
2019-05-13T04:43:02.600Z,2.03
2019-05-13T04:45:33.002Z,2.30
2019-05-13T04:48:03.750Z,2.70
2019-05-13T04:50:34.145Z,2.13
2019-05-13T04:53:05.150Z,2.10
2019-05-13T04:55:35.680Z,2.40
2019-05-13T04:58:06.401Z,2.08
2019-05-13T05:01:23.748Z,2.00
2019-05-13T05:04:30.407Z,2.03
2019-05-13T05:07:06.642Z,2.07
2019-05-13T05:10:17.418Z,2.10
2019-05-13T05:13:17.527Z,2.20
2019-05-13T05:16:13.492Z,2.03
2019-05-13T05:19:12.213Z,2.27
2019-05-13T05:21:55.199Z,2.07
2019-05-13T05:25:05.242Z,2.40
2019-05-13T05:28:02.111Z,2.40
2019-05-13T05:31:02.409Z,2.10
2019-05-13T05:34:14.190Z,2.50
2019-05-13T05:37:33.542Z,1.97
2019-05-13T05:40:06.285Z,2.27
2019-05-13T05:42:37.731Z,2.00
2019-05-13T05:45:08.588Z,2.40
2019-05-13T05:47:42.091Z,2.17
2019-05-13T05:50:12.874Z,2.10
2019-05-13T05:52:44.335Z,2.10
2019-05-13T05:55:14.559Z,1.77
2019-05-13T05:57:46.789Z,2.00
2019-05-13T06:00:17.571Z,1.87
2019-05-13T06:02:52.930Z,1.70
2019-05-13T06:05:22.613Z,2.10
2019-05-13T06:07:53.271Z,1.53
2019-05-13T06:10:23.785Z,1.23
2019-05-13T06:12:55.516Z,1.37
2019-05-13T06:15:26.399Z,1.47
2019-05-13T06:17:56.815Z,1.90
2019-05-13T06:20:27.469Z,1.27
2019-05-13T06:22:57.794Z,1.37
2019-05-13T06:25:28.107Z,1.13
2019-05-13T06:27:58.912Z,1.10
2019-05-13T06:30:31.881Z,1.10
2019-05-13T06:33:01.682Z,1.30
2019-05-13T06:35:32.662Z,1.10
2019-05-13T06:38:02.949Z,1.20
2019-05-13T06:40:33.737Z,1.13
2019-05-13T06:43:04.270Z,1.20
2019-05-13T06:45:34.819Z,1.10
2019-05-13T06:48:05.307Z,1.07
2019-05-13T06:50:35.573Z,1.30
2019-05-13T06:53:08.457Z,0.90
2019-05-13T06:55:37.839Z,0.90
2019-05-13T06:58:08.277Z,1.00
2019-05-13T07:00:38.579Z,1.20
2019-05-13T07:03:08.893Z,0.90
2019-05-13T07:05:39.143Z,0.97
2019-05-13T07:08:11.995Z,1.13
2019-05-13T07:10:42.143Z,0.63
2019-05-13T07:13:12.411Z,0.90
2019-05-13T07:15:42.633Z,0.73
2019-05-13T07:18:16.087Z,1.03
2019-05-13T07:20:44.789Z,0.83
2019-05-13T07:23:15.050Z,0.80
2019-05-13T07:25:45.326Z,0.73
2019-05-13T07:28:15.966Z,0.80
2019-05-13T07:30:46.590Z,0.60
2019-05-13T07:33:16.890Z,0.57
2019-05-13T07:35:47.351Z,0.40
2019-05-13T07:38:18.513Z,1.10
2019-05-13T07:40:52.684Z,0.50
2019-05-13T07:43:23.943Z,0.80
2019-05-13T07:45:54.166Z,0.70
2019-05-13T07:48:27.755Z,0.40
2019-05-13T07:51:00.772Z,0.50
2019-05-13T07:53:32.218Z,0.53
2019-05-13T07:56:02.261Z,0.60
2019-05-13T07:58:37.223Z,0.87
2019-05-13T08:01:04.947Z,0.70
2019-05-13T08:03:35.284Z,1.03
2019-05-13T08:06:05.554Z,0.80
2019-05-13T08:08:36.203Z,0.60
2019-05-13T08:11:06.950Z,0.70
2019-05-13T08:13:38.428Z,0.50
2019-05-13T08:16:08.786Z,0.60
2019-05-13T08:18:39.084Z,0.60
2019-05-13T08:21:09.364Z,0.60
2019-05-13T08:23:41.715Z,0.37
2019-05-13T08:26:12.440Z,0.53
2019-05-13T08:28:57.159Z,0.40
2019-05-13T08:31:14.755Z,0.90
2019-05-13T08:33:44.932Z,0.30
2019-05-13T08:36:15.128Z,0.30
2019-05-13T08:38:45.324Z,0.40
2019-05-13T08:41:19.430Z,0.43
2019-05-13T08:43:47.531Z,0.30
2019-05-13T08:46:18.419Z,0.43
2019-05-13T08:48:51.609Z,0.50
2019-05-13T08:51:22.055Z,0.40
2019-05-13T08:53:52.458Z,0.90
2019-05-13T08:56:23.798Z,0.40
2019-05-13T08:58:54.164Z,0.47
2019-05-13T09:01:25.435Z,0.40
2019-05-13T09:03:55.621Z,0.62
2019-05-13T09:06:26.452Z,0.40
2019-05-13T09:08:56.667Z,0.50
2019-05-13T09:11:26.938Z,0.30
2019-05-13T09:13:57.518Z,0.42
2019-05-13T09:16:27.749Z,0.30
2019-05-13T09:18:58.066Z,0.53
2019-05-13T09:21:28.611Z,0.50
2019-05-13T09:23:58.798Z,0.43
2019-05-13T09:26:31.589Z,0.50
2019-05-13T09:29:01.701Z,0.40
2019-05-13T09:31:32.944Z,0.43
2019-05-13T09:34:03.136Z,0.37
2019-05-13T09:36:33.619Z,0.40
2019-05-13T09:39:05.697Z,0.42
2019-05-13T09:41:40.770Z,0.30
2019-05-13T09:44:07.833Z,0.40
2019-05-13T09:46:38.040Z,0.95
2019-05-13T09:49:18.441Z,0.40
2019-05-13T09:51:41.721Z,0.33
2019-05-13T09:54:12.067Z,0.35
2019-05-13T09:56:42.404Z,0.35
2019-05-13T09:59:12.898Z,0.30
2019-05-13T10:01:43.298Z,0.37
2019-05-13T10:04:13.596Z,0.50
2019-05-13T10:06:43.926Z,0.30
2019-05-13T10:09:14.167Z,0.30
2019-05-13T10:11:44.386Z,0.40
2019-05-13T10:14:14.576Z,0.42
2019-05-13T10:16:44.784Z,0.40
2019-05-13T10:19:14.986Z,0.30
2019-05-13T10:21:45.520Z,0.20
2019-05-13T10:24:16.244Z,0.25
2019-05-13T10:26:48.539Z,0.30
2019-05-13T10:29:22.083Z,0.28
2019-05-13T10:31:52.688Z,0.30
2019-05-13T10:34:23.286Z,0.30
2019-05-13T10:36:54.218Z,0.28
2019-05-13T10:39:24.472Z,0.37
2019-05-13T10:41:54.659Z,0.30
2019-05-13T10:44:25.194Z,0.45
2019-05-13T10:46:55.377Z,0.40
2019-05-13T10:49:25.603Z,0.40
2019-05-13T10:51:55.812Z,0.30
2019-05-13T10:54:26.010Z,0.35
2019-05-13T10:56:59.649Z,0.20
2019-05-13T10:59:29.270Z,0.30
2019-05-13T11:02:02.277Z,0.30
2019-05-13T11:04:32.648Z,0.30
2019-05-13T11:07:03.338Z,0.50
2019-05-13T11:09:33.586Z,0.40
2019-05-13T11:12:04.699Z,0.40
2019-05-13T11:14:35.154Z,0.40
2019-05-13T11:17:05.443Z,0.40
2019-05-13T11:19:37.121Z,0.30
2019-05-13T11:22:07.576Z,0.30
2019-05-13T11:24:37.856Z,0.37
2019-05-13T11:27:08.476Z,0.33
2019-05-13T11:29:38.691Z,0.33
2019-05-13T11:32:12.927Z,0.30
2019-05-13T11:34:42.923Z,0.23
2019-05-13T11:37:14.615Z,0.57
2019-05-13T11:39:45.244Z,0.40
2019-05-13T11:42:15.427Z,0.45
2019-05-13T11:44:46.015Z,0.40
2019-05-13T11:47:16.186Z,0.42
2019-05-13T11:49:46.673Z,0.50
2019-05-13T11:52:17.175Z,0.45
2019-05-13T11:54:47.400Z,0.50
2019-05-13T11:57:17.921Z,0.50
2019-05-13T11:59:48.969Z,0.40
2019-05-13T12:02:22.929Z,0.42
2019-05-13T12:04:53.573Z,0.50
2019-05-13T12:07:24.927Z,0.40
2019-05-13T12:09:55.260Z,0.30
2019-05-13T12:12:30.677Z,0.50
2019-05-13T12:15:22.368Z,0.40
2019-05-13T12:17:33.736Z,0.30
2019-05-13T12:20:03.090Z,0.33
2019-05-13T12:22:33.864Z,0.50
2019-05-13T12:25:05.116Z,0.53
2019-05-13T12:27:35.331Z,0.43
2019-05-13T12:30:06.319Z,0.50
2019-05-13T12:32:37.419Z,0.33
2019-05-13T12:35:07.831Z,0.43
2019-05-13T12:37:38.076Z,0.40
2019-05-13T12:40:10.047Z,0.70
2019-05-13T12:42:46.776Z,0.70
2019-05-13T12:45:14.689Z,0.45
2019-05-13T12:47:45.009Z,0.40
2019-05-13T12:50:15.978Z,0.57
2019-05-13T12:52:46.307Z,0.37
2019-05-13T12:55:16.896Z,0.50
2019-05-13T12:57:47.425Z,0.47
2019-05-13T13:00:18.567Z,0.80
2019-05-13T13:02:51.777Z,0.55
2019-05-13T13:05:24.023Z,0.40
2019-05-13T13:08:15.905Z,0.47
2019-05-13T13:10:24.488Z,0.50
2019-05-13T13:12:55.120Z,0.57
2019-05-13T13:15:38.329Z,0.57
2019-05-13T13:17:57.333Z,0.45
2019-05-13T13:20:27.956Z,0.47
2019-05-13T13:22:58.646Z,0.50
2019-05-13T13:25:29.120Z,0.45
2019-05-13T13:28:10.808Z,0.35
2019-05-13T13:30:35.165Z,0.40
2019-05-13T13:33:03.526Z,0.60
2019-05-13T13:35:34.151Z,0.50
2019-05-13T13:38:04.700Z,0.55
2019-05-13T13:40:35.813Z,0.50
2019-05-13T13:43:06.422Z,0.57
2019-05-13T13:48:08.461Z,0.50
2019-05-13T13:50:38.725Z,0.40
2019-05-13T13:53:13.490Z,0.80
2019-05-13T13:55:44.242Z,0.42
2019-05-13T13:58:14.137Z,0.70
2019-05-13T14:00:56.380Z,0.40
2019-05-13T14:03:16.668Z,0.47
2019-05-13T14:05:47.274Z,0.40
2019-05-13T14:07:13.500Z,0.68
2019-05-13T14:08:17.536Z,0.45
2019-05-13T14:10:47.775Z,0.60
2019-05-13T14:13:17.954Z,0.60
2019-05-13T14:15:48.521Z,0.45
2019-05-13T14:18:18.720Z,0.50
2019-05-13T14:20:48.929Z,0.60
2019-05-13T14:23:21.323Z,0.60
2019-05-13T14:25:52.991Z,0.72
2019-05-13T14:28:23.797Z,0.50
2019-05-13T14:30:54.334Z,0.70
2019-05-13T14:33:24.524Z,0.65
2019-05-13T14:35:54.834Z,0.47
2019-05-13T14:38:25.012Z,0.60
2019-05-13T14:40:55.726Z,0.42
2019-05-13T14:43:26.329Z,0.80
2019-05-13T14:45:56.579Z,0.50
2019-05-13T14:48:27.079Z,0.60
2019-05-13T14:50:59.052Z,0.50
2019-05-13T14:53:31.859Z,0.40
2019-05-13T14:56:02.979Z,0.60
2019-05-13T14:58:33.524Z,0.40
2019-05-13T15:01:17.931Z,0.60
2019-05-13T15:03:35.623Z,0.40
2019-05-13T15:06:06.120Z,0.65
2019-05-13T15:08:36.658Z,0.53
2019-05-13T15:11:06.909Z,0.60
2019-05-13T15:13:37.096Z,0.68
2019-05-13T15:16:07.383Z,0.72
2019-05-13T15:18:37.628Z,0.50
2019-05-13T15:21:08.107Z,0.60
2019-05-13T15:23:38.361Z,0.50
2019-05-13T15:26:08.660Z,0.70
2019-05-13T15:28:38.993Z,0.50
2019-05-13T15:31:10.896Z,0.53
2019-05-13T15:33:41.753Z,0.60
2019-05-13T15:36:12.396Z,0.65
2019-05-13T15:38:42.785Z,0.43
2019-05-13T15:41:15.649Z,0.47
2019-05-13T15:43:44.983Z,0.40
2019-05-13T15:46:15.490Z,1.00
2019-05-13T15:48:46.070Z,0.60
2019-05-13T15:51:16.261Z,0.53
2019-05-13T15:53:46.550Z,0.30
2019-05-13T15:56:17.015Z,0.42
2019-05-13T15:58:47.265Z,0.50
2019-05-13T16:01:17.790Z,0.60
2019-05-13T16:03:48.043Z,0.60
2019-05-13T16:06:18.545Z,0.50
2019-05-13T16:08:51.619Z,0.30
2019-05-13T16:11:21.991Z,0.50
2019-05-13T16:13:53.382Z,0.40
2019-05-13T16:16:23.564Z,0.50
2019-05-13T16:18:54.470Z,0.30
2019-05-13T16:21:24.675Z,0.53
2019-05-13T16:23:54.894Z,0.40
2019-05-13T16:26:45.587Z,0.60
2019-05-13T16:28:57.212Z,0.50
2019-05-13T16:31:27.394Z,0.40
2019-05-13T16:33:57.673Z,0.50
2019-05-13T16:36:27.905Z,0.50
2019-05-13T16:39:01.973Z,0.28
2019-05-13T16:41:33.246Z,0.70
2019-05-13T16:44:03.637Z,0.40
2019-05-13T16:46:34.801Z,0.60
2019-05-13T16:49:06.151Z,0.75
2019-05-13T16:51:36.680Z,0.42
2019-05-13T16:54:07.208Z,0.57
2019-05-13T16:56:37.403Z,0.42
2019-05-13T16:59:08.746Z,0.30
2019-05-13T17:01:41.813Z,0.70
2019-05-13T17:04:12.620Z,0.50
2019-05-13T17:06:42.951Z,0.50
2019-05-13T17:09:14.233Z,0.33
2019-05-13T17:11:44.420Z,0.35
2019-05-13T17:14:14.717Z,0.33
2019-05-13T17:16:44.935Z,0.30
2019-05-13T17:19:15.498Z,0.40
2019-05-13T17:21:45.689Z,0.40
2019-05-13T17:24:16.194Z,0.72
2019-05-13T17:26:46.417Z,0.60
2019-05-13T17:29:16.654Z,0.40
2019-05-13T17:31:47.102Z,0.50
2019-05-13T17:34:17.728Z,0.42
2019-05-13T17:36:47.908Z,0.70
2019-05-13T17:39:18.113Z,1.15
2019-05-13T17:41:48.301Z,0.47
2019-05-13T17:44:19.135Z,0.40
2019-05-13T17:46:49.308Z,0.50
2019-05-13T17:49:19.515Z,0.67
2019-05-13T17:51:51.716Z,0.55
2019-05-13T17:54:22.291Z,0.40
2019-05-13T17:56:52.467Z,0.50
2019-05-13T17:59:23.331Z,0.40
2019-05-13T18:01:54.351Z,0.13
2019-05-13T18:04:24.574Z,0.30
2019-05-13T18:06:54.748Z,0.40
2019-05-13T18:09:24.951Z,0.28
2019-05-13T18:11:55.467Z,0.35
2019-05-13T18:14:26.010Z,0.33
2019-05-13T18:16:56.184Z,0.33
2019-05-13T18:19:27.158Z,0.30
2019-05-13T18:21:57.687Z,0.37
2019-05-13T18:24:27.909Z,0.33
2019-05-13T18:26:58.113Z,0.40
2019-05-13T18:29:28.663Z,0.60
2019-05-13T18:31:58.929Z,0.60
2019-05-13T18:34:29.165Z,0.35
2019-05-13T18:37:02.192Z,0.47
2019-05-13T18:39:32.260Z,0.70
2019-05-13T18:42:03.722Z,0.50
2019-05-13T18:44:34.015Z,1.90
2019-05-13T18:47:04.529Z,0.80
2019-05-13T18:49:35.081Z,0.40
2019-05-13T18:52:05.261Z,0.60
2019-05-13T18:54:35.466Z,0.68
2019-05-13T18:57:05.826Z,0.60
2019-05-13T18:59:36.452Z,1.40
2019-05-13T19:02:07.252Z,0.47
2019-05-13T19:04:37.518Z,0.60
2019-05-13T19:07:08.451Z,0.40
2019-05-13T19:09:38.985Z,0.40
2019-05-13T19:12:11.458Z,0.50
2019-05-13T19:14:41.324Z,0.47
2019-05-13T19:17:12.310Z,0.60
2019-05-13T19:19:42.773Z,0.50
2019-05-13T19:22:13.297Z,0.50
2019-05-13T19:24:43.565Z,0.47
2019-05-13T19:27:13.816Z,0.70
2019-05-13T19:29:44.412Z,0.50
2019-05-13T19:32:14.677Z,0.73
2019-05-13T19:34:45.039Z,0.70
2019-05-13T19:37:15.379Z,0.77
2019-05-13T19:39:45.943Z,0.60
2019-05-13T19:42:16.494Z,0.77
2019-05-13T19:44:46.858Z,0.90
2019-05-13T19:47:17.428Z,0.70
2019-05-13T19:49:47.795Z,0.70
2019-05-13T19:52:18.083Z,1.07
2019-05-13T19:54:48.714Z,0.60
2019-05-13T19:57:21.125Z,0.80
2019-05-13T19:59:51.693Z,0.70
2019-05-13T20:02:22.473Z,0.80
2019-05-13T20:04:52.717Z,0.53
2019-05-13T20:07:23.567Z,0.60
2019-05-13T20:09:53.773Z,0.47
2019-05-13T20:12:24.054Z,0.93
2019-05-13T20:14:54.396Z,0.50
2019-05-13T20:17:24.694Z,0.90
2019-05-13T20:19:55.550Z,0.80
2019-05-13T20:22:25.760Z,0.87
2019-05-13T20:24:56.705Z,0.77
2019-05-13T20:27:27.024Z,0.93
2019-05-13T20:29:57.449Z,0.77
2019-05-13T20:32:28.840Z,0.90
2019-05-13T20:35:02.006Z,0.80
2019-05-13T20:37:32.105Z,0.90
2019-05-13T20:40:03.936Z,0.80
2019-05-13T20:42:34.207Z,0.80
2019-05-13T20:45:04.666Z,0.90
2019-05-13T20:47:35.934Z,1.40
2019-05-13T20:50:06.605Z,0.90
2019-05-13T20:52:37.378Z,1.10
2019-05-13T20:55:07.975Z,1.37
2019-05-13T20:57:38.323Z,1.10
2019-05-13T21:00:09.410Z,1.00
2019-05-13T21:02:41.783Z,0.80
2019-05-13T21:05:12.445Z,1.30
2019-05-13T21:07:42.732Z,0.90
2019-05-13T21:10:13.183Z,1.00
2019-05-13T21:12:43.478Z,0.70
2019-05-13T21:15:13.744Z,0.80
2019-05-13T21:17:44.318Z,0.73
2019-05-13T21:20:22.155Z,1.17
2019-05-13T21:22:46.627Z,1.00
2019-05-13T21:25:17.391Z,0.97
2019-05-13T21:27:48.773Z,0.80
2019-05-13T21:30:18.969Z,1.13
2019-05-13T21:32:51.626Z,0.60
2019-05-13T21:35:22.735Z,0.83
2019-05-13T21:37:53.282Z,0.70
2019-05-13T21:40:23.811Z,0.93
2019-05-13T21:42:54.023Z,0.50
2019-05-13T21:45:24.321Z,0.80
2019-05-13T21:47:54.578Z,0.90
2019-05-13T21:50:34.374Z,0.70
2019-05-13T21:52:56.640Z,1.00
2019-05-13T21:55:27.260Z,1.55
2019-05-13T21:57:57.451Z,0.93
2019-05-13T22:00:32.181Z,0.90
2019-05-13T22:03:03.527Z,0.63
2019-05-13T22:05:33.859Z,0.73
2019-05-13T22:08:05.841Z,0.90
2019-05-13T22:10:36.080Z,0.67
2019-05-13T22:13:06.637Z,1.00
2019-05-13T22:15:37.483Z,1.00
2019-05-13T22:18:07.689Z,1.00
2019-05-13T22:20:47.434Z,0.90
2019-05-13T22:23:11.930Z,1.30
2019-05-13T22:25:43.808Z,1.00
2019-05-13T22:28:13.912Z,1.00
2019-05-13T22:30:44.111Z,1.00
2019-05-13T22:33:15.686Z,0.83
2019-05-13T22:35:45.931Z,1.30
2019-05-13T22:38:16.108Z,0.87
2019-05-13T22:40:46.285Z,0.70
2019-05-13T22:43:17.762Z,0.90
2019-05-13T22:45:47.927Z,0.80
2019-05-13T22:48:18.482Z,0.97
2019-05-13T22:50:48.659Z,0.90
2019-05-13T22:53:20.989Z,0.60
2019-05-13T22:55:52.158Z,0.97
2019-05-13T22:58:22.696Z,0.80
2019-05-13T23:00:53.941Z,0.60
2019-05-13T23:03:24.130Z,0.90
2019-05-13T23:05:54.676Z,0.80
2019-05-13T23:08:24.893Z,1.20
2019-05-13T23:10:55.075Z,1.03
2019-05-13T23:13:25.900Z,0.70
2019-05-13T23:15:56.075Z,0.93
2019-05-13T23:18:26.291Z,0.90
2019-05-13T23:20:56.498Z,0.90
2019-05-13T23:23:27.783Z,0.73
2019-05-13T23:25:57.970Z,0.73
2019-05-13T23:28:28.191Z,0.50
2019-05-13T23:30:58.455Z,0.60
2019-05-13T23:33:31.230Z,0.60
2019-05-13T23:36:01.503Z,0.60
2019-05-13T23:38:32.158Z,0.53
2019-05-13T23:41:02.671Z,0.60
2019-05-13T23:43:33.073Z,0.60
2019-05-13T23:46:03.362Z,0.53
2019-05-13T23:48:33.535Z,0.77
2019-05-13T23:51:03.734Z,0.60
2019-05-13T23:53:34.278Z,0.97
2019-05-13T23:56:04.564Z,0.60
2019-05-13T23:58:34.855Z,0.57
